sensor_id;sensor_type;location;lat;lon;timestamp;temperature;humidity
108;DHT22;49;48.530;9.200;2022-10-22T00:00:51;17.50;14.30
108;DHT22;49;48.530;9.200;2022-10-22T00:03:19;17.30;13.80
108;DHT22;49;48.530;9.200;2022-10-22T00:05:46;17.40;15.50
108;DHT22;49;48.530;9.200;2022-10-22T00:08:14;17.60;14.60
108;DHT22;49;48.530;9.200;2022-10-22T00:10:44;17.70;12.70
108;DHT22;49;48.530;9.200;2022-10-22T00:13:25;17.60;12.30
108;DHT22;49;48.530;9.200;2022-10-22T00:15:52;17.70;13.00
108;DHT22;49;48.530;9.200;2022-10-22T00:18:24;18.00;12.20
108;DHT22;49;48.530;9.200;2022-10-22T00:20:51;18.10;10.30
108;DHT22;49;48.530;9.200;2022-10-22T00:23:18;17.90;11.00
108;DHT22;49;48.530;9.200;2022-10-22T00:25:47;17.80;12.20
108;DHT22;49;48.530;9.200;2022-10-22T00:28:14;17.90;10.70
108;DHT22;49;48.530;9.200;2022-10-22T00:30:44;18.00;10.20
108;DHT22;49;48.530;9.200;2022-10-22T00:33:11;18.00;9.90
108;DHT22;49;48.530;9.200;2022-10-22T00:35:38;18.30;9.00
108;DHT22;49;48.530;9.200;2022-10-22T00:38:08;18.50;8.90
108;DHT22;49;48.530;9.200;2022-10-22T00:40:35;18.30;7.90
108;DHT22;49;48.530;9.200;2022-10-22T00:43:03;18.30;7.90
108;DHT22;49;48.530;9.200;2022-10-22T00:45:30;17.90;8.40
108;DHT22;49;48.530;9.200;2022-10-22T00:48:00;18.00;8.60
108;DHT22;49;48.530;9.200;2022-10-22T00:50:32;18.30;7.30
108;DHT22;49;48.530;9.200;2022-10-22T00:53:02;18.50;8.00
108;DHT22;49;48.530;9.200;2022-10-22T00:55:32;18.50;7.20
108;DHT22;49;48.530;9.200;2022-10-22T00:58:00;18.80;7.10
108;DHT22;49;48.530;9.200;2022-10-22T01:00:29;18.70;5.90
108;DHT22;49;48.530;9.200;2022-10-22T01:02:57;18.90;6.60
108;DHT22;49;48.530;9.200;2022-10-22T01:05:27;19.00;6.70
108;DHT22;49;48.530;9.200;2022-10-22T01:07:57;19.00;6.10
108;DHT22;49;48.530;9.200;2022-10-22T01:10:41;19.00;5.60
108;DHT22;49;48.530;9.200;2022-10-22T01:16:38;19.00;5.40
108;DHT22;49;48.530;9.200;2022-10-22T01:19:27;18.60;5.20
108;DHT22;49;48.530;9.200;2022-10-22T01:21:59;18.40;6.00
108;DHT22;49;48.530;9.200;2022-10-22T01:24:46;18.60;6.10
108;DHT22;49;48.530;9.200;2022-10-22T01:27:30;18.50;6.00
108;DHT22;49;48.530;9.200;2022-10-22T01:30:03;18.20;7.20
108;DHT22;49;48.530;9.200;2022-10-22T01:32:35;17.60;8.20
108;DHT22;49;48.530;9.200;2022-10-22T01:35:06;17.50;9.70
108;DHT22;49;48.530;9.200;2022-10-22T01:37:39;17.40;9.90
108;DHT22;49;48.530;9.200;2022-10-22T01:40:08;17.40;9.70
108;DHT22;49;48.530;9.200;2022-10-22T01:42:36;17.50;9.10
108;DHT22;49;48.530;9.200;2022-10-22T01:45:10;17.60;9.70
108;DHT22;49;48.530;9.200;2022-10-22T01:47:46;17.70;9.40
108;DHT22;49;48.530;9.200;2022-10-22T01:50:43;17.80;9.40
108;DHT22;49;48.530;9.200;2022-10-22T01:53:21;17.70;8.70
108;DHT22;49;48.530;9.200;2022-10-22T01:56:17;17.80;8.60
108;DHT22;49;48.530;9.200;2022-10-22T01:58:53;17.80;7.70
108;DHT22;49;48.530;9.200;2022-10-22T02:01:30;17.80;8.30
108;DHT22;49;48.530;9.200;2022-10-22T02:04:03;17.80;7.70
108;DHT22;49;48.530;9.200;2022-10-22T02:06:35;17.70;7.20
108;DHT22;49;48.530;9.200;2022-10-22T02:09:06;17.90;7.10
108;DHT22;49;48.530;9.200;2022-10-22T02:11:34;18.10;7.70
108;DHT22;49;48.530;9.200;2022-10-22T02:14:03;18.20;6.70
108;DHT22;49;48.530;9.200;2022-10-22T02:16:35;18.20;6.80
108;DHT22;49;48.530;9.200;2022-10-22T02:19:12;18.10;6.90
108;DHT22;49;48.530;9.200;2022-10-22T02:21:40;18.10;5.80
108;DHT22;49;48.530;9.200;2022-10-22T02:24:07;18.20;6.90
108;DHT22;49;48.530;9.200;2022-10-22T02:26:40;18.20;6.40
108;DHT22;49;48.530;9.200;2022-10-22T02:29:14;18.10;6.80
108;DHT22;49;48.530;9.200;2022-10-22T02:31:45;17.90;7.00
108;DHT22;49;48.530;9.200;2022-10-22T02:34:18;17.90;6.90
108;DHT22;49;48.530;9.200;2022-10-22T02:36:47;18.00;7.10
108;DHT22;49;48.530;9.200;2022-10-22T02:39:15;18.00;7.50
108;DHT22;49;48.530;9.200;2022-10-22T02:41:43;18.10;7.70
108;DHT22;49;48.530;9.200;2022-10-22T02:44:11;17.80;6.60
108;DHT22;49;48.530;9.200;2022-10-22T02:46:39;17.70;7.20
108;DHT22;49;48.530;9.200;2022-10-22T02:49:08;17.70;7.90
108;DHT22;49;48.530;9.200;2022-10-22T02:51:36;17.70;7.10
108;DHT22;49;48.530;9.200;2022-10-22T02:54:03;17.40;7.30
108;DHT22;49;48.530;9.200;2022-10-22T02:56:30;17.40;8.90
108;DHT22;49;48.530;9.200;2022-10-22T02:58:57;17.20;8.90
108;DHT22;49;48.530;9.200;2022-10-22T03:01:24;16.90;9.20
108;DHT22;49;48.530;9.200;2022-10-22T03:03:51;16.70;10.20
108;DHT22;49;48.530;9.200;2022-10-22T03:06:20;16.60;11.20
108;DHT22;49;48.530;9.200;2022-10-22T03:08:47;16.70;11.50
108;DHT22;49;48.530;9.200;2022-10-22T03:11:14;16.80;10.50
108;DHT22;49;48.530;9.200;2022-10-22T03:13:41;16.90;9.80
108;DHT22;49;48.530;9.200;2022-10-22T03:16:08;16.60;11.50
108;DHT22;49;48.530;9.200;2022-10-22T03:18:35;16.70;11.70
108;DHT22;49;48.530;9.200;2022-10-22T03:21:08;17.10;10.00
108;DHT22;49;48.530;9.200;2022-10-22T03:23:39;16.80;11.20
108;DHT22;49;48.530;9.200;2022-10-22T03:26:08;16.50;11.40
108;DHT22;49;48.530;9.200;2022-10-22T03:28:36;16.60;12.20
108;DHT22;49;48.530;9.200;2022-10-22T03:31:04;16.90;10.30
108;DHT22;49;48.530;9.200;2022-10-22T03:33:31;17.20;8.90
108;DHT22;49;48.530;9.200;2022-10-22T03:36:00;17.30;8.30
108;DHT22;49;48.530;9.200;2022-10-22T03:41:15;17.00;9.40
108;DHT22;49;48.530;9.200;2022-10-22T03:43:42;17.30;8.00
108;DHT22;49;48.530;9.200;2022-10-22T03:46:14;17.60;6.90
108;DHT22;49;48.530;9.200;2022-10-22T03:48:41;17.80;6.60
108;DHT22;49;48.530;9.200;2022-10-22T03:51:09;17.80;4.70
108;DHT22;49;48.530;9.200;2022-10-22T03:53:36;18.00;6.70
108;DHT22;49;48.530;9.200;2022-10-22T03:56:11;18.00;5.40
108;DHT22;49;48.530;9.200;2022-10-22T03:58:41;17.80;6.00
108;DHT22;49;48.530;9.200;2022-10-22T04:01:12;17.80;5.80
108;DHT22;49;48.530;9.200;2022-10-22T04:03:40;18.00;4.90
108;DHT22;49;48.530;9.200;2022-10-22T04:06:08;18.20;5.60
108;DHT22;49;48.530;9.200;2022-10-22T04:08:37;18.30;4.90
108;DHT22;49;48.530;9.200;2022-10-22T04:11:05;18.30;4.90
108;DHT22;49;48.530;9.200;2022-10-22T04:13:36;18.20;4.90
108;DHT22;49;48.530;9.200;2022-10-22T04:16:07;18.20;4.90
108;DHT22;49;48.530;9.200;2022-10-22T04:18:34;18.20;4.90
108;DHT22;49;48.530;9.200;2022-10-22T04:21:01;18.40;5.00
108;DHT22;49;48.530;9.200;2022-10-22T04:23:28;18.40;3.70
108;DHT22;49;48.530;9.200;2022-10-22T04:25:57;18.30;4.20
108;DHT22;49;48.530;9.200;2022-10-22T04:28:24;18.20;5.60
108;DHT22;49;48.530;9.200;2022-10-22T04:30:53;18.40;6.10
108;DHT22;49;48.530;9.200;2022-10-22T04:33:21;18.50;5.20
108;DHT22;49;48.530;9.200;2022-10-22T04:35:51;18.70;4.80
108;DHT22;49;48.530;9.200;2022-10-22T04:38:21;18.80;2.70
108;DHT22;49;48.530;9.200;2022-10-22T04:40:48;18.40;2.20
108;DHT22;49;48.530;9.200;2022-10-22T04:56:16;18.10;4.80
108;DHT22;49;48.530;9.200;2022-10-22T04:58:46;18.30;4.90
108;DHT22;49;48.530;9.200;2022-10-22T05:01:16;18.10;2.60
108;DHT22;49;48.530;9.200;2022-10-22T05:03:44;18.20;4.80
108;DHT22;49;48.530;9.200;2022-10-22T05:06:12;18.20;3.70
108;DHT22;49;48.530;9.200;2022-10-22T05:08:40;18.00;4.70
108;DHT22;49;48.530;9.200;2022-10-22T05:11:14;17.50;4.40
108;DHT22;49;48.530;9.200;2022-10-22T05:13:43;17.20;6.40
108;DHT22;49;48.530;9.200;2022-10-22T05:16:13;17.00;5.90
108;DHT22;49;48.530;9.200;2022-10-22T05:18:43;17.00;6.30
108;DHT22;49;48.530;9.200;2022-10-22T05:21:12;17.40;7.00
108;DHT22;49;48.530;9.200;2022-10-22T05:23:39;17.40;6.10
108;DHT22;49;48.530;9.200;2022-10-22T05:26:08;17.20;5.40
108;DHT22;49;48.530;9.200;2022-10-22T05:28:39;17.00;7.50
108;DHT22;49;48.530;9.200;2022-10-22T05:31:08;16.90;8.20
108;DHT22;49;48.530;9.200;2022-10-22T05:33:36;16.80;6.70
108;DHT22;49;48.530;9.200;2022-10-22T05:36:06;16.90;8.50
108;DHT22;49;48.530;9.200;2022-10-22T05:38:36;17.10;6.70
108;DHT22;49;48.530;9.200;2022-10-22T05:41:11;17.40;6.60
108;DHT22;49;48.530;9.200;2022-10-22T05:43:40;17.50;7.20
108;DHT22;49;48.530;9.200;2022-10-22T05:46:10;17.60;4.40
108;DHT22;49;48.530;9.200;2022-10-22T05:48:40;17.80;4.60
108;DHT22;49;48.530;9.200;2022-10-22T05:51:10;18.00;4.80
108;DHT22;49;48.530;9.200;2022-10-22T05:53:41;18.00;4.70
108;DHT22;49;48.530;9.200;2022-10-22T05:56:12;17.90;5.50
108;DHT22;49;48.530;9.200;2022-10-22T05:58:44;17.90;4.70
108;DHT22;49;48.530;9.200;2022-10-22T06:01:13;17.80;4.60
108;DHT22;49;48.530;9.200;2022-10-22T06:03:41;18.00;4.70
108;DHT22;49;48.530;9.200;2022-10-22T06:06:16;18.10;4.40
108;DHT22;49;48.530;9.200;2022-10-22T06:08:47;17.90;4.60
108;DHT22;49;48.530;9.200;2022-10-22T06:11:15;17.90;5.90
108;DHT22;49;48.530;9.200;2022-10-22T06:13:44;17.90;5.00
108;DHT22;49;48.530;9.200;2022-10-22T06:16:12;17.90;4.90
108;DHT22;49;48.530;9.200;2022-10-22T06:18:40;17.80;6.20
108;DHT22;49;48.530;9.200;2022-10-22T06:21:11;17.80;6.50
108;DHT22;49;48.530;9.200;2022-10-22T06:23:41;17.90;6.20
108;DHT22;49;48.530;9.200;2022-10-22T06:26:09;18.20;5.20
108;DHT22;49;48.530;9.200;2022-10-22T06:28:44;18.30;3.50
108;DHT22;49;48.530;9.200;2022-10-22T06:31:11;18.10;3.70
108;DHT22;49;48.530;9.200;2022-10-22T06:33:44;18.10;4.00
108;DHT22;49;48.530;9.200;2022-10-22T06:36:13;18.00;4.70
108;DHT22;49;48.530;9.200;2022-10-22T06:38:41;18.10;4.00
108;DHT22;49;48.530;9.200;2022-10-22T06:41:13;18.10;4.50
108;DHT22;49;48.530;9.200;2022-10-22T06:43:45;18.00;4.10
108;DHT22;49;48.530;9.200;2022-10-22T06:46:15;18.00;6.40
108;DHT22;49;48.530;9.200;2022-10-22T06:48:47;18.40;4.80
108;DHT22;49;48.530;9.200;2022-10-22T06:51:17;18.50;5.00
108;DHT22;49;48.530;9.200;2022-10-22T06:53:46;18.70;4.10
108;DHT22;49;48.530;9.200;2022-10-22T06:56:18;18.80;3.80
108;DHT22;49;48.530;9.200;2022-10-22T07:01:25;18.50;3.40
108;DHT22;49;48.530;9.200;2022-10-22T07:03:57;18.50;4.60
108;DHT22;49;48.530;9.200;2022-10-22T07:06:26;18.60;4.70
108;DHT22;49;48.530;9.200;2022-10-22T07:08:55;18.80;3.40
108;DHT22;49;48.530;9.200;2022-10-22T07:11:24;18.80;3.60
108;DHT22;49;48.530;9.200;2022-10-22T07:13:55;19.00;2.50
108;DHT22;49;48.530;9.200;2022-10-22T07:16:27;19.00;3.00
108;DHT22;49;48.530;9.200;2022-10-22T07:18:57;19.30;2.10
108;DHT22;49;48.530;9.200;2022-10-22T07:21:27;18.90;1.90
108;DHT22;49;48.530;9.200;2022-10-22T07:23:55;18.70;3.20
108;DHT22;49;48.530;9.200;2022-10-22T07:26:22;18.40;3.90
108;DHT22;49;48.530;9.200;2022-10-22T07:28:52;18.40;4.50
108;DHT22;49;48.530;9.200;2022-10-22T07:31:38;18.60;4.30
108;DHT22;49;48.530;9.200;2022-10-22T07:34:05;18.40;2.90
108;DHT22;49;48.530;9.200;2022-10-22T07:36:37;18.20;4.90
108;DHT22;49;48.530;9.200;2022-10-22T07:39:04;18.40;5.00
108;DHT22;49;48.530;9.200;2022-10-22T07:41:50;18.60;3.90
108;DHT22;49;48.530;9.200;2022-10-22T07:44:17;19.00;4.70
108;DHT22;49;48.530;9.200;2022-10-22T07:46:49;19.10;2.70
108;DHT22;49;48.530;9.200;2022-10-22T07:49:18;19.30;3.40
108;DHT22;49;48.530;9.200;2022-10-22T07:51:45;19.60;1.90
108;DHT22;49;48.530;9.200;2022-10-22T07:54:12;19.60;2.00
108;DHT22;49;48.530;9.200;2022-10-22T07:59:07;19.80;1.70
108;DHT22;49;48.530;9.200;2022-10-22T08:01:36;19.90;1.00
108;DHT22;49;48.530;9.200;2022-10-22T08:04:05;20.20;1.00
108;DHT22;49;48.530;9.200;2022-10-22T08:06:34;20.40;1.00
108;DHT22;49;48.530;9.200;2022-10-22T08:09:04;20.70;1.00
108;DHT22;49;48.530;9.200;2022-10-22T08:11:31;20.80;1.00
108;DHT22;49;48.530;9.200;2022-10-22T08:14:06;21.10;1.00
108;DHT22;49;48.530;9.200;2022-10-22T08:16:33;21.20;1.00
108;DHT22;49;48.530;9.200;2022-10-22T08:19:08;21.40;1.00
108;DHT22;49;48.530;9.200;2022-10-22T08:21:46;21.40;1.00
108;DHT22;49;48.530;9.200;2022-10-22T08:24:28;21.70;1.00
108;DHT22;49;48.530;9.200;2022-10-22T08:26:56;21.70;1.00
108;DHT22;49;48.530;9.200;2022-10-22T08:29:27;21.90;1.00
108;DHT22;49;48.530;9.200;2022-10-22T08:31:56;21.90;1.00
108;DHT22;49;48.530;9.200;2022-10-22T08:34:34;22.00;1.00
108;DHT22;49;48.530;9.200;2022-10-22T08:37:07;22.00;1.00
108;DHT22;49;48.530;9.200;2022-10-22T08:39:39;22.00;1.00
108;DHT22;49;48.530;9.200;2022-10-22T08:42:27;22.10;1.00
108;DHT22;49;48.530;9.200;2022-10-22T08:45:11;22.10;1.00
108;DHT22;49;48.530;9.200;2022-10-22T08:48:01;22.30;1.00
108;DHT22;49;48.530;9.200;2022-10-22T08:50:34;22.40;1.00
108;DHT22;49;48.530;9.200;2022-10-22T08:53:05;22.20;1.00
108;DHT22;49;48.530;9.200;2022-10-22T08:55:37;22.10;1.00
108;DHT22;49;48.530;9.200;2022-10-22T08:58:18;22.10;1.00
108;DHT22;49;48.530;9.200;2022-10-22T09:00:53;22.10;1.00
108;DHT22;49;48.530;9.200;2022-10-22T09:03:39;22.10;1.00
108;DHT22;49;48.530;9.200;2022-10-22T09:06:12;22.10;1.00
108;DHT22;49;48.530;9.200;2022-10-22T09:08:45;22.00;1.00
108;DHT22;49;48.530;9.200;2022-10-22T09:11:22;21.90;1.00
108;DHT22;49;48.530;9.200;2022-10-22T09:13:53;21.90;1.00
108;DHT22;49;48.530;9.200;2022-10-22T09:16:29;21.70;1.00
108;DHT22;49;48.530;9.200;2022-10-22T09:19:10;21.70;1.00
108;DHT22;49;48.530;9.200;2022-10-22T09:21:53;21.90;1.00
108;DHT22;49;48.530;9.200;2022-10-22T09:24:41;22.10;1.00
108;DHT22;49;48.530;9.200;2022-10-22T09:27:14;22.20;1.00
108;DHT22;49;48.530;9.200;2022-10-22T09:29:46;22.20;1.00
108;DHT22;49;48.530;9.200;2022-10-22T09:32:18;22.10;1.00
108;DHT22;49;48.530;9.200;2022-10-22T09:34:49;21.80;1.00
108;DHT22;49;48.530;9.200;2022-10-22T09:37:24;21.70;1.00
108;DHT22;49;48.530;9.200;2022-10-22T09:39:54;21.80;1.00
108;DHT22;49;48.530;9.200;2022-10-22T09:42:26;22.10;1.00
108;DHT22;49;48.530;9.200;2022-10-22T09:44:55;22.10;1.00
108;DHT22;49;48.530;9.200;2022-10-22T09:47:32;22.10;1.00
108;DHT22;49;48.530;9.200;2022-10-22T09:56:05;21.70;1.00
108;DHT22;49;48.530;9.200;2022-10-22T09:58:42;22.00;1.00
108;DHT22;49;48.530;9.200;2022-10-22T10:01:17;22.10;1.00
108;DHT22;49;48.530;9.200;2022-10-22T10:03:48;22.40;1.00
108;DHT22;49;48.530;9.200;2022-10-22T10:06:21;22.40;1.00
108;DHT22;49;48.530;9.200;2022-10-22T10:08:52;22.20;1.00
108;DHT22;49;48.530;9.200;2022-10-22T10:11:41;22.30;1.00
108;DHT22;49;48.530;9.200;2022-10-22T10:14:17;22.40;1.00
108;DHT22;49;48.530;9.200;2022-10-22T10:16:55;22.10;1.00
108;DHT22;49;48.530;9.200;2022-10-22T10:19:34;22.20;1.00
108;DHT22;49;48.530;9.200;2022-10-22T10:22:16;21.80;1.00
108;DHT22;49;48.530;9.200;2022-10-22T10:25:09;21.70;1.00
108;DHT22;49;48.530;9.200;2022-10-22T10:30:36;21.70;1.00
108;DHT22;49;48.530;9.200;2022-10-22T10:33:15;21.90;1.00
108;DHT22;49;48.530;9.200;2022-10-22T10:36:05;22.20;1.00
108;DHT22;49;48.530;9.200;2022-10-22T10:38:58;22.30;1.00
108;DHT22;49;48.530;9.200;2022-10-22T11:14:15;21.90;1.00
108;DHT22;49;48.530;9.200;2022-10-22T11:16:48;22.00;1.00
108;DHT22;49;48.530;9.200;2022-10-22T11:19:21;21.80;1.00
108;DHT22;49;48.530;9.200;2022-10-22T11:21:53;22.20;1.00
108;DHT22;49;48.530;9.200;2022-10-22T11:24:29;22.70;1.00
108;DHT22;49;48.530;9.200;2022-10-22T11:27:05;22.80;1.00
108;DHT22;49;48.530;9.200;2022-10-22T11:29:40;22.70;1.00
108;DHT22;49;48.530;9.200;2022-10-22T11:32:17;22.50;1.00
108;DHT22;49;48.530;9.200;2022-10-22T11:34:55;22.60;1.00
108;DHT22;49;48.530;9.200;2022-10-22T11:37:29;22.80;1.00
108;DHT22;49;48.530;9.200;2022-10-22T11:40:04;22.90;1.00
108;DHT22;49;48.530;9.200;2022-10-22T11:42:34;23.10;1.00
108;DHT22;49;48.530;9.200;2022-10-22T11:45:05;23.20;1.00
108;DHT22;49;48.530;9.200;2022-10-22T11:47:56;23.50;1.00
108;DHT22;49;48.530;9.200;2022-10-22T11:53:34;23.40;1.00
108;DHT22;49;48.530;9.200;2022-10-22T11:56:23;23.70;1.00
108;DHT22;49;48.530;9.200;2022-10-22T11:58:51;23.90;1.00
108;DHT22;49;48.530;9.200;2022-10-22T12:01:29;23.50;1.00
108;DHT22;49;48.530;9.200;2022-10-22T12:04:17;23.50;1.00
108;DHT22;49;48.530;9.200;2022-10-22T12:06:58;23.40;1.00
108;DHT22;49;48.530;9.200;2022-10-22T12:09:27;23.50;1.00
108;DHT22;49;48.530;9.200;2022-10-22T12:12:03;23.70;1.00
108;DHT22;49;48.530;9.200;2022-10-22T12:14:50;23.20;1.00
108;DHT22;49;48.530;9.200;2022-10-22T12:17:23;23.00;1.00
108;DHT22;49;48.530;9.200;2022-10-22T12:22:29;22.50;1.00
108;DHT22;49;48.530;9.200;2022-10-22T12:24:59;22.60;1.00
108;DHT22;49;48.530;9.200;2022-10-22T12:27:34;22.50;1.00
108;DHT22;49;48.530;9.200;2022-10-22T12:30:17;23.00;1.00
108;DHT22;49;48.530;9.200;2022-10-22T12:32:51;23.50;1.00
108;DHT22;49;48.530;9.200;2022-10-22T12:35:24;23.50;1.00
108;DHT22;49;48.530;9.200;2022-10-22T12:37:56;23.50;1.00
108;DHT22;49;48.530;9.200;2022-10-22T12:40:25;23.50;1.00
108;DHT22;49;48.530;9.200;2022-10-22T12:42:57;23.50;1.00
108;DHT22;49;48.530;9.200;2022-10-22T12:45:32;23.70;1.00
108;DHT22;49;48.530;9.200;2022-10-22T12:50:47;23.60;1.00
108;DHT22;49;48.530;9.200;2022-10-22T12:53:16;23.70;1.00
108;DHT22;49;48.530;9.200;2022-10-22T12:55:47;23.90;1.00
108;DHT22;49;48.530;9.200;2022-10-22T12:58:17;23.80;1.00
108;DHT22;49;48.530;9.200;2022-10-22T13:00:54;23.70;1.00
108;DHT22;49;48.530;9.200;2022-10-22T13:03:33;23.70;1.00
108;DHT22;49;48.530;9.200;2022-10-22T13:06:23;23.70;1.00
108;DHT22;49;48.530;9.200;2022-10-22T13:09:05;23.70;1.00
108;DHT22;49;48.530;9.200;2022-10-22T13:11:38;23.70;1.00
108;DHT22;49;48.530;9.200;2022-10-22T13:14:18;23.70;1.00
108;DHT22;49;48.530;9.200;2022-10-22T13:17:07;23.60;1.00
108;DHT22;49;48.530;9.200;2022-10-22T13:19:40;23.70;1.00
108;DHT22;49;48.530;9.200;2022-10-22T13:22:32;23.70;1.00
108;DHT22;49;48.530;9.200;2022-10-22T13:25:17;23.50;1.00
108;DHT22;49;48.530;9.200;2022-10-22T13:27:48;23.50;1.00
108;DHT22;49;48.530;9.200;2022-10-22T13:30:21;23.60;1.00
108;DHT22;49;48.530;9.200;2022-10-22T13:32:58;23.80;1.00
108;DHT22;49;48.530;9.200;2022-10-22T13:35:29;23.80;1.00
108;DHT22;49;48.530;9.200;2022-10-22T13:38:05;23.80;1.00
108;DHT22;49;48.530;9.200;2022-10-22T13:40:38;23.80;1.00
108;DHT22;49;48.530;9.200;2022-10-22T13:43:05;23.80;1.00
108;DHT22;49;48.530;9.200;2022-10-22T13:45:32;23.80;1.00
108;DHT22;49;48.530;9.200;2022-10-22T13:48:00;23.80;1.00
108;DHT22;49;48.530;9.200;2022-10-22T13:50:30;23.80;1.00
108;DHT22;49;48.530;9.200;2022-10-22T13:53:01;23.80;1.00
108;DHT22;49;48.530;9.200;2022-10-22T13:55:30;23.90;1.00
108;DHT22;49;48.530;9.200;2022-10-22T13:58:08;23.90;1.00
108;DHT22;49;48.530;9.200;2022-10-22T14:00:41;23.90;1.00
108;DHT22;49;48.530;9.200;2022-10-22T14:03:19;23.90;1.00
108;DHT22;49;48.530;9.200;2022-10-22T14:05:49;24.00;1.00
108;DHT22;49;48.530;9.200;2022-10-22T14:08:24;23.90;1.00
108;DHT22;49;48.530;9.200;2022-10-22T14:10:52;23.30;1.00
108;DHT22;49;48.530;9.200;2022-10-22T14:13:23;23.20;1.00
108;DHT22;49;48.530;9.200;2022-10-22T14:15:53;23.40;1.00
108;DHT22;49;48.530;9.200;2022-10-22T14:18:27;23.60;1.00
108;DHT22;49;48.530;9.200;2022-10-22T14:20:58;23.80;1.00
108;DHT22;49;48.530;9.200;2022-10-22T14:23:29;23.60;1.00
108;DHT22;49;48.530;9.200;2022-10-22T14:26:03;23.60;1.00
108;DHT22;49;48.530;9.200;2022-10-22T14:28:31;23.70;1.00
108;DHT22;49;48.530;9.200;2022-10-22T14:30:59;23.70;1.00
108;DHT22;49;48.530;9.200;2022-10-22T14:33:28;23.70;1.00
108;DHT22;49;48.530;9.200;2022-10-22T14:35:56;23.70;1.00
108;DHT22;49;48.530;9.200;2022-10-22T14:38:23;23.70;1.00
108;DHT22;49;48.530;9.200;2022-10-22T14:40:51;23.50;1.00
108;DHT22;49;48.530;9.200;2022-10-22T14:43:21;23.50;1.00
108;DHT22;49;48.530;9.200;2022-10-22T14:45:48;23.20;1.00
108;DHT22;49;48.530;9.200;2022-10-22T14:48:16;23.30;1.00
108;DHT22;49;48.530;9.200;2022-10-22T14:50:45;23.40;1.00
108;DHT22;49;48.530;9.200;2022-10-22T14:53:13;23.40;1.00
108;DHT22;49;48.530;9.200;2022-10-22T14:55:43;23.40;1.00
108;DHT22;49;48.530;9.200;2022-10-22T14:58:13;23.20;1.00
108;DHT22;49;48.530;9.200;2022-10-22T15:03:15;23.40;1.00
108;DHT22;49;48.530;9.200;2022-10-22T15:05:43;23.20;1.00
108;DHT22;49;48.530;9.200;2022-10-22T15:08:13;23.00;1.00
108;DHT22;49;48.530;9.200;2022-10-22T15:10:40;23.00;1.00
108;DHT22;49;48.530;9.200;2022-10-22T15:13:07;23.00;1.00
108;DHT22;49;48.530;9.200;2022-10-22T15:15:42;23.10;1.00
108;DHT22;49;48.530;9.200;2022-10-22T15:18:09;23.20;1.00
108;DHT22;49;48.530;9.200;2022-10-22T15:20:39;23.20;1.00
108;DHT22;49;48.530;9.200;2022-10-22T15:23:08;23.10;1.00
108;DHT22;49;48.530;9.200;2022-10-22T15:25:35;23.10;1.00
108;DHT22;49;48.530;9.200;2022-10-22T15:28:02;23.00;1.00
108;DHT22;49;48.530;9.200;2022-10-22T15:30:31;23.00;1.00
108;DHT22;49;48.530;9.200;2022-10-22T15:33:01;22.80;1.00
108;DHT22;49;48.530;9.200;2022-10-22T15:35:27;22.90;1.00
108;DHT22;49;48.530;9.200;2022-10-22T15:37:54;22.80;1.00
108;DHT22;49;48.530;9.200;2022-10-22T15:40:21;22.80;1.00
108;DHT22;49;48.530;9.200;2022-10-22T15:42:48;22.70;1.00
108;DHT22;49;48.530;9.200;2022-10-22T15:45:17;22.70;1.00
108;DHT22;49;48.530;9.200;2022-10-22T15:47:48;22.60;1.00
108;DHT22;49;48.530;9.200;2022-10-22T15:50:16;22.70;1.00
108;DHT22;49;48.530;9.200;2022-10-22T15:52:43;22.70;1.00
108;DHT22;49;48.530;9.200;2022-10-22T15:55:11;22.70;1.00
108;DHT22;49;48.530;9.200;2022-10-22T15:57:38;22.80;1.00
108;DHT22;49;48.530;9.200;2022-10-22T16:00:07;22.80;1.00
108;DHT22;49;48.530;9.200;2022-10-22T16:02:34;22.80;1.00
108;DHT22;49;48.530;9.200;2022-10-22T16:05:01;22.90;1.00
108;DHT22;49;48.530;9.200;2022-10-22T16:07:30;22.90;1.00
108;DHT22;49;48.530;9.200;2022-10-22T16:09:57;22.80;1.00
108;DHT22;49;48.530;9.200;2022-10-22T16:12:26;22.80;1.00
108;DHT22;49;48.530;9.200;2022-10-22T16:14:54;22.80;1.00
108;DHT22;49;48.530;9.200;2022-10-22T16:17:21;22.90;1.00
108;DHT22;49;48.530;9.200;2022-10-22T16:19:49;22.80;1.00
108;DHT22;49;48.530;9.200;2022-10-22T16:22:18;22.70;1.00
108;DHT22;49;48.530;9.200;2022-10-22T16:24:47;22.70;1.00
108;DHT22;49;48.530;9.200;2022-10-22T16:27:27;22.60;1.00
108;DHT22;49;48.530;9.200;2022-10-22T16:29:54;22.70;1.00
108;DHT22;49;48.530;9.200;2022-10-22T16:32:42;22.60;1.00
108;DHT22;49;48.530;9.200;2022-10-22T16:35:09;22.50;1.00
108;DHT22;49;48.530;9.200;2022-10-22T16:37:40;22.60;1.00
108;DHT22;49;48.530;9.200;2022-10-22T16:40:14;22.20;1.00
108;DHT22;49;48.530;9.200;2022-10-22T16:42:50;21.80;1.00
108;DHT22;49;48.530;9.200;2022-10-22T16:45:31;21.80;1.00
108;DHT22;49;48.530;9.200;2022-10-22T16:47:58;21.70;1.00
108;DHT22;49;48.530;9.200;2022-10-22T16:50:26;21.50;1.00
108;DHT22;49;48.530;9.200;2022-10-22T16:52:59;21.40;1.00
108;DHT22;49;48.530;9.200;2022-10-22T16:55:52;21.30;1.00
108;DHT22;49;48.530;9.200;2022-10-22T16:58:19;21.20;1.00
108;DHT22;49;48.530;9.200;2022-10-22T17:00:55;21.00;1.00
108;DHT22;49;48.530;9.200;2022-10-22T17:03:27;21.00;1.00
108;DHT22;49;48.530;9.200;2022-10-22T17:05:59;20.80;1.00
108;DHT22;49;48.530;9.200;2022-10-22T17:08:29;20.60;1.00
108;DHT22;49;48.530;9.200;2022-10-22T17:10:57;20.60;1.00
108;DHT22;49;48.530;9.200;2022-10-22T17:13:43;20.60;1.00
108;DHT22;49;48.530;9.200;2022-10-22T17:16:13;20.70;1.00
108;DHT22;49;48.530;9.200;2022-10-22T17:18:44;20.90;1.00
108;DHT22;49;48.530;9.200;2022-10-22T17:21:12;20.90;1.00
108;DHT22;49;48.530;9.200;2022-10-22T17:37:21;20.50;1.00
108;DHT22;49;48.530;9.200;2022-10-22T17:43:04;20.10;1.00
108;DHT22;49;48.530;9.200;2022-10-22T17:45:47;20.00;1.00
108;DHT22;49;48.530;9.200;2022-10-22T18:30:37;18.90;1.00
108;DHT22;49;48.530;9.200;2022-10-22T18:33:05;19.10;1.30
108;DHT22;49;48.530;9.200;2022-10-22T18:35:32;19.30;2.30
108;DHT22;49;48.530;9.200;2022-10-22T18:40:34;19.20;1.00
108;DHT22;49;48.530;9.200;2022-10-22T18:43:01;19.00;1.00
108;DHT22;49;48.530;9.200;2022-10-22T18:45:28;19.30;2.50
108;DHT22;49;48.530;9.200;2022-10-22T18:47:57;19.40;2.30
108;DHT22;49;48.530;9.200;2022-10-22T18:50:25;19.40;1.00
108;DHT22;49;48.530;9.200;2022-10-22T18:52:52;19.30;1.00
108;DHT22;49;48.530;9.200;2022-10-22T18:55:20;19.10;1.00
108;DHT22;49;48.530;9.200;2022-10-22T18:57:50;19.00;3.00
108;DHT22;49;48.530;9.200;2022-10-22T19:00:22;19.30;3.40
108;DHT22;49;48.530;9.200;2022-10-22T19:02:51;19.50;2.10
108;DHT22;49;48.530;9.200;2022-10-22T19:05:19;19.60;2.70
108;DHT22;49;48.530;9.200;2022-10-22T19:07:48;19.50;1.00
108;DHT22;49;48.530;9.200;2022-10-22T19:10:15;19.30;1.20
108;DHT22;49;48.530;9.200;2022-10-22T19:12:43;18.90;1.00
108;DHT22;49;48.530;9.200;2022-10-22T19:15:12;19.20;3.00
108;DHT22;49;48.530;9.200;2022-10-22T19:17:39;19.30;2.70
108;DHT22;49;48.530;9.200;2022-10-22T19:20:10;19.20;1.00
108;DHT22;49;48.530;9.200;2022-10-22T19:22:40;19.20;2.50
108;DHT22;49;48.530;9.200;2022-10-22T19:25:08;19.10;2.40
108;DHT22;49;48.530;9.200;2022-10-22T19:27:35;19.10;1.70
108;DHT22;49;48.530;9.200;2022-10-22T19:30:03;19.20;3.00
108;DHT22;49;48.530;9.200;2022-10-22T19:32:30;19.40;2.80
108;DHT22;49;48.530;9.200;2022-10-22T19:34:57;19.50;2.60
108;DHT22;49;48.530;9.200;2022-10-22T19:37:24;19.40;2.00
108;DHT22;49;48.530;9.200;2022-10-22T19:39:52;19.60;2.00
108;DHT22;49;48.530;9.200;2022-10-22T19:42:19;19.70;2.00
108;DHT22;49;48.530;9.200;2022-10-22T19:44:46;19.70;1.10
108;DHT22;49;48.530;9.200;2022-10-22T19:47:13;19.30;1.00
108;DHT22;49;48.530;9.200;2022-10-22T19:49:40;19.40;1.90
108;DHT22;49;48.530;9.200;2022-10-22T19:52:08;19.50;1.60
108;DHT22;49;48.530;9.200;2022-10-22T19:54:35;19.70;1.90
108;DHT22;49;48.530;9.200;2022-10-22T19:57:07;19.70;2.30